Terminal Aerodrome Forecast
Issued by NWS Midland/Odessa, TX

Home | Current Version | Previous Version | Text Only | Print | Product List | Glossary On
Versions: 1 2 3 4 5 6 7 8 9 10 11 12 13 14 15 16 17 18 19
321
FTUS44 KMAF 261602 AAB
TAFMAF
TAF AMD
KMAF 261602Z 2616/2712 18011KT P6SM FEW080
      TEMPO 2619/2623 17010G20KT=

USA.gov is the U.S. government's official web portal to all federal, state and local government web resources and services.